CheckWX is a tool to help pilots better visualize weather data.  It is not intended as a substitute for an official pre-flight weather briefing.

11:04:07 UTC

CYTZ METAR
Toronto / City Centre Airport
Toronto, Canada
Current

36 mins ago

CYTZ 291028Z AUTO 06022G30KT 9SM OVC005 05/04 A2972 RMK SLP069
Observed
Mar-29 @ 10:28 UTC
Wind
  • 060° at 22 KTS
  • Gusting to 30 KTS
Visibility
9 SM
Flight Rules
IFR
Cloud Levels
  • Overcast at 500' AGL
Temperature
C / 41°F
Dewpoint
C / 39°F
Humidity
93%
Altimeter
29.72" Hg
Pressure
1006.42 hPa
Previous

1 hour ago

CYTZ 291000Z AUTO 06023G28KT 8SM -RA OVC005 05/04 A2974 RMK PRESFR SLP074
Observed
Mar-29 @ 10:00 UTC
Wind
  • 060° at 23 KTS
  • Gusting to 28 KTS
Visibility
8 SM
Flight Rules
IFR
Conditions
Light Rain
Cloud Levels
  • Overcast at 500' AGL
Temperature
C / 41°F
Dewpoint
C / 39°F
Humidity
93%
Altimeter
29.74" Hg
Pressure
1007.12 hPa
Previous

1 hour ago

CYTZ 290955Z AUTO 06022G28KT 9SM -RA OVC005 05/04 A2974 RMK PRESFR SLP076
Observed
Mar-29 @ 09:55 UTC
Wind
  • 060° at 22 KTS
  • Gusting to 28 KTS
Visibility
9 SM
Flight Rules
IFR
Conditions
Light Rain
Cloud Levels
  • Overcast at 500' AGL
Temperature
C / 41°F
Dewpoint
C / 39°F
Humidity
93%
Altimeter
29.74" Hg
Pressure
1007.12 hPa